sensor_id;sensor_type;location;lat;lon;timestamp;P1;durP1;ratioP1;P2;durP2;ratioP2
73938;SDS011;62291;47.554;8.504;2022-07-24T00:02:04;11.45;;;10.35;;
73938;SDS011;62291;47.554;8.504;2022-07-24T00:04:30;11.30;;;10.07;;
73938;SDS011;62291;47.554;8.504;2022-07-24T00:06:56;13.13;;;11.20;;
73938;SDS011;62291;47.554;8.504;2022-07-24T00:09:21;11.85;;;10.05;;
73938;SDS011;62291;47.554;8.504;2022-07-24T00:11:47;11.05;;;10.05;;
73938;SDS011;62291;47.554;8.504;2022-07-24T00:14:13;14.48;;;10.50;;
73938;SDS011;62291;47.554;8.504;2022-07-24T00:16:38;11.48;;;10.30;;
73938;SDS011;62291;47.554;8.504;2022-07-24T00:19:04;11.35;;;10.13;;
73938;SDS011;62291;47.554;8.504;2022-07-24T00:21:30;11.65;;;10.15;;
73938;SDS011;62291;47.554;8.504;2022-07-24T00:23:55;11.52;;;10.00;;
73938;SDS011;62291;47.554;8.504;2022-07-24T00:26:21;11.23;;;10.02;;
73938;SDS011;62291;47.554;8.504;2022-07-24T00:28:47;11.13;;;10.13;;
73938;SDS011;62291;47.554;8.504;2022-07-24T00:31:13;10.65;;;9.55;;
73938;SDS011;62291;47.554;8.504;2022-07-24T00:33:39;11.57;;;10.30;;
73938;SDS011;62291;47.554;8.504;2022-07-24T00:36:05;10.68;;;9.63;;
73938;SDS011;62291;47.554;8.504;2022-07-24T00:38:31;11.55;;;9.85;;
73938;SDS011;62291;47.554;8.504;2022-07-24T00:40:57;14.40;;;10.48;;
73938;SDS011;62291;47.554;8.504;2022-07-24T00:43:23;11.50;;;10.30;;
73938;SDS011;62291;47.554;8.504;2022-07-24T00:45:49;11.82;;;10.60;;
73938;SDS011;62291;47.554;8.504;2022-07-24T00:48:15;11.23;;;10.23;;
73938;SDS011;62291;47.554;8.504;2022-07-24T00:50:41;11.68;;;10.52;;
73938;SDS011;62291;47.554;8.504;2022-07-24T00:53:08;11.68;;;10.57;;
73938;SDS011;62291;47.554;8.504;2022-07-24T00:55:35;11.77;;;10.63;;
73938;SDS011;62291;47.554;8.504;2022-07-24T00:58:02;11.57;;;10.57;;
73938;SDS011;62291;47.554;8.504;2022-07-24T01:00:28;11.77;;;10.57;;
73938;SDS011;62291;47.554;8.504;2022-07-24T01:02:54;12.05;;;10.85;;
73938;SDS011;62291;47.554;8.504;2022-07-24T01:05:20;11.65;;;10.50;;
73938;SDS011;62291;47.554;8.504;2022-07-24T01:07:46;12.45;;;11.25;;
73938;SDS011;62291;47.554;8.504;2022-07-24T01:10:12;12.02;;;10.55;;
73938;SDS011;62291;47.554;8.504;2022-07-24T01:12:38;12.90;;;11.60;;
73938;SDS011;62291;47.554;8.504;2022-07-24T01:15:05;13.07;;;11.43;;
73938;SDS011;62291;47.554;8.504;2022-07-24T01:17:33;12.13;;;10.88;;
73938;SDS011;62291;47.554;8.504;2022-07-24T01:20:00;14.48;;;12.77;;
73938;SDS011;62291;47.554;8.504;2022-07-24T01:22:26;11.52;;;10.52;;
73938;SDS011;62291;47.554;8.504;2022-07-24T01:24:53;11.70;;;10.60;;
73938;SDS011;62291;47.554;8.504;2022-07-24T01:27:20;11.93;;;10.73;;
73938;SDS011;62291;47.554;8.504;2022-07-24T01:29:47;11.93;;;10.20;;
73938;SDS011;62291;47.554;8.504;2022-07-24T01:32:13;12.00;;;10.30;;
73938;SDS011;62291;47.554;8.504;2022-07-24T01:34:38;12.00;;;10.82;;
73938;SDS011;62291;47.554;8.504;2022-07-24T01:37:04;14.85;;;11.77;;
73938;SDS011;62291;47.554;8.504;2022-07-24T01:39:30;13.10;;;11.80;;
73938;SDS011;62291;47.554;8.504;2022-07-24T01:41:55;12.82;;;11.60;;
73938;SDS011;62291;47.554;8.504;2022-07-24T01:44:21;12.80;;;11.50;;
73938;SDS011;62291;47.554;8.504;2022-07-24T01:46:47;16.65;;;12.60;;
73938;SDS011;62291;47.554;8.504;2022-07-24T01:49:13;11.88;;;10.68;;
73938;SDS011;62291;47.554;8.504;2022-07-24T01:51:39;12.75;;;11.60;;
73938;SDS011;62291;47.554;8.504;2022-07-24T01:54:05;12.20;;;11.10;;
73938;SDS011;62291;47.554;8.504;2022-07-24T01:56:31;12.43;;;11.23;;
73938;SDS011;62291;47.554;8.504;2022-07-24T01:58:58;13.13;;;11.93;;
73938;SDS011;62291;47.554;8.504;2022-07-24T02:01:24;12.95;;;11.63;;
73938;SDS011;62291;47.554;8.504;2022-07-24T02:03:50;12.27;;;11.07;;
73938;SDS011;62291;47.554;8.504;2022-07-24T02:06:16;13.93;;;12.48;;
73938;SDS011;62291;47.554;8.504;2022-07-24T02:08:42;11.07;;;10.07;;
73938;SDS011;62291;47.554;8.504;2022-07-24T02:11:07;12.63;;;11.45;;
73938;SDS011;62291;47.554;8.504;2022-07-24T02:13:33;13.45;;;12.05;;
73938;SDS011;62291;47.554;8.504;2022-07-24T02:15:59;14.60;;;13.13;;
73938;SDS011;62291;47.554;8.504;2022-07-24T02:18:25;15.43;;;13.82;;
73938;SDS011;62291;47.554;8.504;2022-07-24T02:20:50;13.35;;;12.05;;
73938;SDS011;62291;47.554;8.504;2022-07-24T02:23:16;13.90;;;12.50;;
73938;SDS011;62291;47.554;8.504;2022-07-24T02:25:45;13.35;;;12.02;;
73938;SDS011;62291;47.554;8.504;2022-07-24T02:28:12;13.00;;;11.77;;
73938;SDS011;62291;47.554;8.504;2022-07-24T02:30:38;14.60;;;13.07;;
73938;SDS011;62291;47.554;8.504;2022-07-24T02:33:04;14.23;;;12.82;;
73938;SDS011;62291;47.554;8.504;2022-07-24T02:35:30;16.02;;;14.43;;
73938;SDS011;62291;47.554;8.504;2022-07-24T02:37:56;14.48;;;13.18;;
73938;SDS011;62291;47.554;8.504;2022-07-24T02:40:21;14.68;;;12.80;;
73938;SDS011;62291;47.554;8.504;2022-07-24T02:42:48;13.02;;;11.73;;
73938;SDS011;62291;47.554;8.504;2022-07-24T02:45:14;13.57;;;12.32;;
73938;SDS011;62291;47.554;8.504;2022-07-24T02:47:49;14.32;;;13.10;;
73938;SDS011;62291;47.554;8.504;2022-07-24T02:50:20;14.07;;;12.68;;
73938;SDS011;62291;47.554;8.504;2022-07-24T02:52:47;13.32;;;12.02;;
73938;SDS011;62291;47.554;8.504;2022-07-24T02:55:12;13.75;;;12.38;;
73938;SDS011;62291;47.554;8.504;2022-07-24T02:57:39;14.18;;;12.68;;
73938;SDS011;62291;47.554;8.504;2022-07-24T03:00:07;14.38;;;12.63;;
73938;SDS011;62291;47.554;8.504;2022-07-24T03:02:35;15.10;;;12.40;;
73938;SDS011;62291;47.554;8.504;2022-07-24T03:05:01;13.02;;;11.82;;
73938;SDS011;62291;47.554;8.504;2022-07-24T03:07:28;14.40;;;13.00;;
73938;SDS011;62291;47.554;8.504;2022-07-24T03:09:54;14.32;;;12.93;;
73938;SDS011;62291;47.554;8.504;2022-07-24T03:12:19;13.38;;;12.02;;
73938;SDS011;62291;47.554;8.504;2022-07-24T03:14:45;14.02;;;12.48;;
73938;SDS011;62291;47.554;8.504;2022-07-24T03:17:11;14.57;;;13.18;;
73938;SDS011;62291;47.554;8.504;2022-07-24T03:19:36;14.90;;;13.45;;
73938;SDS011;62291;47.554;8.504;2022-07-24T03:22:02;14.00;;;12.65;;
73938;SDS011;62291;47.554;8.504;2022-07-24T03:24:28;15.10;;;13.45;;
73938;SDS011;62291;47.554;8.504;2022-07-24T03:26:53;14.95;;;13.45;;
73938;SDS011;62291;47.554;8.504;2022-07-24T03:29:19;14.88;;;13.40;;
73938;SDS011;62291;47.554;8.504;2022-07-24T03:31:45;15.07;;;13.48;;
73938;SDS011;62291;47.554;8.504;2022-07-24T03:34:11;14.52;;;13.05;;
73938;SDS011;62291;47.554;8.504;2022-07-24T03:36:37;13.85;;;12.55;;
73938;SDS011;62291;47.554;8.504;2022-07-24T03:39:03;13.25;;;12.05;;
73938;SDS011;62291;47.554;8.504;2022-07-24T03:41:29;13.00;;;11.75;;
73938;SDS011;62291;47.554;8.504;2022-07-24T03:43:55;15.43;;;12.82;;
73938;SDS011;62291;47.554;8.504;2022-07-24T03:46:21;15.15;;;13.63;;
73938;SDS011;62291;47.554;8.504;2022-07-24T03:48:47;15.05;;;13.65;;
73938;SDS011;62291;47.554;8.504;2022-07-24T03:51:12;15.00;;;12.45;;
73938;SDS011;62291;47.554;8.504;2022-07-24T03:53:38;13.93;;;12.63;;
73938;SDS011;62291;47.554;8.504;2022-07-24T03:56:04;16.38;;;14.68;;
73938;SDS011;62291;47.554;8.504;2022-07-24T03:58:31;16.00;;;14.60;;
73938;SDS011;62291;47.554;8.504;2022-07-24T04:00:57;16.20;;;14.60;;
73938;SDS011;62291;47.554;8.504;2022-07-24T04:03:22;16.70;;;15.10;;
73938;SDS011;62291;47.554;8.504;2022-07-24T04:05:48;18.15;;;15.18;;
73938;SDS011;62291;47.554;8.504;2022-07-24T04:08:14;14.65;;;13.30;;
73938;SDS011;62291;47.554;8.504;2022-07-24T04:10:39;13.82;;;12.52;;
73938;SDS011;62291;47.554;8.504;2022-07-24T04:13:05;15.02;;;13.63;;
73938;SDS011;62291;47.554;8.504;2022-07-24T04:15:31;14.85;;;12.35;;
73938;SDS011;62291;47.554;8.504;2022-07-24T04:17:56;14.75;;;13.25;;
73938;SDS011;62291;47.554;8.504;2022-07-24T04:20:22;15.55;;;14.05;;
73938;SDS011;62291;47.554;8.504;2022-07-24T04:22:48;16.50;;;14.65;;
73938;SDS011;62291;47.554;8.504;2022-07-24T04:25:14;14.65;;;13.35;;
73938;SDS011;62291;47.554;8.504;2022-07-24T04:27:39;15.40;;;13.80;;
73938;SDS011;62291;47.554;8.504;2022-07-24T04:30:05;15.63;;;14.23;;
73938;SDS011;62291;47.554;8.504;2022-07-24T04:32:31;14.10;;;12.90;;
73938;SDS011;62291;47.554;8.504;2022-07-24T04:34:57;14.35;;;12.90;;
73938;SDS011;62291;47.554;8.504;2022-07-24T04:37:23;16.13;;;11.73;;
73938;SDS011;62291;47.554;8.504;2022-07-24T04:39:49;13.68;;;11.52;;
73938;SDS011;62291;47.554;8.504;2022-07-24T04:42:14;12.82;;;11.60;;
73938;SDS011;62291;47.554;8.504;2022-07-24T04:44:40;13.85;;;11.95;;
73938;SDS011;62291;47.554;8.504;2022-07-24T04:47:06;13.57;;;12.15;;
73938;SDS011;62291;47.554;8.504;2022-07-24T04:49:31;18.92;;;12.00;;
73938;SDS011;62291;47.554;8.504;2022-07-24T04:51:57;13.68;;;12.27;;
73938;SDS011;62291;47.554;8.504;2022-07-24T04:54:23;13.43;;;12.10;;
73938;SDS011;62291;47.554;8.504;2022-07-24T04:56:48;14.50;;;11.35;;
73938;SDS011;62291;47.554;8.504;2022-07-24T04:59:14;13.02;;;11.82;;
73938;SDS011;62291;47.554;8.504;2022-07-24T05:01:40;13.52;;;12.25;;
73938;SDS011;62291;47.554;8.504;2022-07-24T05:04:05;12.77;;;11.57;;
73938;SDS011;62291;47.554;8.504;2022-07-24T05:06:31;12.20;;;11.00;;
73938;SDS011;62291;47.554;8.504;2022-07-24T05:08:57;12.68;;;11.48;;
73938;SDS011;62291;47.554;8.504;2022-07-24T05:11:23;12.82;;;11.63;;
73938;SDS011;62291;47.554;8.504;2022-07-24T05:13:48;12.95;;;11.65;;
73938;SDS011;62291;47.554;8.504;2022-07-24T05:16:14;12.68;;;11.48;;
73938;SDS011;62291;47.554;8.504;2022-07-24T05:18:40;12.63;;;11.48;;
73938;SDS011;62291;47.554;8.504;2022-07-24T05:21:06;12.80;;;11.60;;
73938;SDS011;62291;47.554;8.504;2022-07-24T05:23:32;12.88;;;11.50;;
73938;SDS011;62291;47.554;8.504;2022-07-24T05:25:58;12.38;;;11.18;;
73938;SDS011;62291;47.554;8.504;2022-07-24T05:28:24;12.27;;;11.00;;
73938;SDS011;62291;47.554;8.504;2022-07-24T05:30:49;12.35;;;11.25;;
73938;SDS011;62291;47.554;8.504;2022-07-24T05:33:15;11.60;;;10.60;;
73938;SDS011;62291;47.554;8.504;2022-07-24T05:35:41;13.93;;;12.15;;
73938;SDS011;62291;47.554;8.504;2022-07-24T05:38:06;12.15;;;11.00;;
73938;SDS011;62291;47.554;8.504;2022-07-24T05:40:32;14.65;;;11.85;;
73938;SDS011;62291;47.554;8.504;2022-07-24T05:42:58;13.07;;;11.77;;
73938;SDS011;62291;47.554;8.504;2022-07-24T05:45:23;12.75;;;11.55;;
73938;SDS011;62291;47.554;8.504;2022-07-24T05:47:49;12.30;;;11.25;;
73938;SDS011;62291;47.554;8.504;2022-07-24T05:50:15;12.43;;;11.38;;
73938;SDS011;62291;47.554;8.504;2022-07-24T05:52:40;12.48;;;10.82;;
73938;SDS011;62291;47.554;8.504;2022-07-24T05:55:06;12.68;;;11.52;;
73938;SDS011;62291;47.554;8.504;2022-07-24T05:57:33;12.32;;;10.95;;
73938;SDS011;62291;47.554;8.504;2022-07-24T05:59:59;11.95;;;10.75;;
73938;SDS011;62291;47.554;8.504;2022-07-24T06:02:25;12.02;;;10.82;;
73938;SDS011;62291;47.554;8.504;2022-07-24T06:04:51;12.05;;;10.32;;
73938;SDS011;62291;47.554;8.504;2022-07-24T06:07:16;11.48;;;10.35;;
73938;SDS011;62291;47.554;8.504;2022-07-24T06:09:42;11.90;;;10.73;;
73938;SDS011;62291;47.554;8.504;2022-07-24T06:12:08;14.25;;;10.82;;
73938;SDS011;62291;47.554;8.504;2022-07-24T06:14:34;11.32;;;10.23;;
73938;SDS011;62291;47.554;8.504;2022-07-24T06:16:59;11.60;;;10.60;;
73938;SDS011;62291;47.554;8.504;2022-07-24T06:19:25;11.68;;;10.50;;
73938;SDS011;62291;47.554;8.504;2022-07-24T06:21:51;11.38;;;10.27;;
73938;SDS011;62291;47.554;8.504;2022-07-24T06:24:17;10.93;;;9.82;;
73938;SDS011;62291;47.554;8.504;2022-07-24T06:26:42;11.65;;;10.38;;
73938;SDS011;62291;47.554;8.504;2022-07-24T06:29:08;11.00;;;10.00;;
73938;SDS011;62291;47.554;8.504;2022-07-24T06:31:34;13.52;;;10.63;;
73938;SDS011;62291;47.554;8.504;2022-07-24T06:33:59;10.73;;;9.77;;
73938;SDS011;62291;47.554;8.504;2022-07-24T06:36:26;11.00;;;10.00;;
73938;SDS011;62291;47.554;8.504;2022-07-24T06:38:52;11.40;;;10.18;;
73938;SDS011;62291;47.554;8.504;2022-07-24T06:41:18;10.63;;;9.73;;
73938;SDS011;62291;47.554;8.504;2022-07-24T06:43:44;11.20;;;9.80;;
73938;SDS011;62291;47.554;8.504;2022-07-24T06:46:09;10.38;;;9.38;;
73938;SDS011;62291;47.554;8.504;2022-07-24T06:48:35;10.80;;;9.02;;
73938;SDS011;62291;47.554;8.504;2022-07-24T06:51:01;10.23;;;9.07;;
73938;SDS011;62291;47.554;8.504;2022-07-24T06:53:27;9.73;;;8.85;;
73938;SDS011;62291;47.554;8.504;2022-07-24T06:55:52;10.85;;;9.85;;
73938;SDS011;62291;47.554;8.504;2022-07-24T06:58:19;10.55;;;8.88;;
73938;SDS011;62291;47.554;8.504;2022-07-24T07:00:46;14.63;;;9.95;;
73938;SDS011;62291;47.554;8.504;2022-07-24T07:03:13;9.85;;;9.00;;
73938;SDS011;62291;47.554;8.504;2022-07-24T07:05:39;9.90;;;9.00;;
73938;SDS011;62291;47.554;8.504;2022-07-24T07:08:04;10.02;;;9.13;;
73938;SDS011;62291;47.554;8.504;2022-07-24T07:10:30;9.25;;;8.45;;
73938;SDS011;62291;47.554;8.504;2022-07-24T07:12:56;9.68;;;8.73;;
73938;SDS011;62291;47.554;8.504;2022-07-24T07:15:21;11.23;;;9.15;;
73938;SDS011;62291;47.554;8.504;2022-07-24T07:17:47;9.93;;;9.02;;
73938;SDS011;62291;47.554;8.504;2022-07-24T07:20:13;10.30;;;9.30;;
73938;SDS011;62291;47.554;8.504;2022-07-24T07:22:40;9.90;;;9.00;;
73938;SDS011;62291;47.554;8.504;2022-07-24T07:25:07;9.75;;;8.70;;
73938;SDS011;62291;47.554;8.504;2022-07-24T07:27:34;9.15;;;8.27;;
73938;SDS011;62291;47.554;8.504;2022-07-24T07:30:00;9.25;;;8.48;;
73938;SDS011;62291;47.554;8.504;2022-07-24T07:32:27;9.10;;;8.18;;
73938;SDS011;62291;47.554;8.504;2022-07-24T07:34:53;9.32;;;8.43;;
73938;SDS011;62291;47.554;8.504;2022-07-24T07:37:19;9.18;;;8.15;;
73938;SDS011;62291;47.554;8.504;2022-07-24T07:39:44;9.43;;;8.52;;
73938;SDS011;62291;47.554;8.504;2022-07-24T07:42:10;9.13;;;8.30;;
73938;SDS011;62291;47.554;8.504;2022-07-24T07:44:36;9.30;;;8.40;;
73938;SDS011;62291;47.554;8.504;2022-07-24T07:47:01;10.15;;;9.23;;
73938;SDS011;62291;47.554;8.504;2022-07-24T07:49:27;9.63;;;8.73;;
73938;SDS011;62291;47.554;8.504;2022-07-24T07:51:53;9.15;;;8.35;;
73938;SDS011;62291;47.554;8.504;2022-07-24T07:54:18;10.55;;;9.45;;
73938;SDS011;62291;47.554;8.504;2022-07-24T07:56:44;9.90;;;9.00;;
73938;SDS011;62291;47.554;8.504;2022-07-24T07:59:10;9.63;;;8.57;;
73938;SDS011;62291;47.554;8.504;2022-07-24T08:01:36;9.80;;;8.80;;
73938;SDS011;62291;47.554;8.504;2022-07-24T08:04:02;11.57;;;8.98;;
73938;SDS011;62291;47.554;8.504;2022-07-24T08:06:28;10.00;;;9.02;;
73938;SDS011;62291;47.554;8.504;2022-07-24T08:08:54;10.60;;;9.50;;
73938;SDS011;62291;47.554;8.504;2022-07-24T08:11:20;12.25;;;11.07;;
73938;SDS011;62291;47.554;8.504;2022-07-24T08:13:45;10.05;;;9.15;;
73938;SDS011;62291;47.554;8.504;2022-07-24T08:16:11;10.43;;;9.63;;
73938;SDS011;62291;47.554;8.504;2022-07-24T08:18:37;9.70;;;8.43;;
73938;SDS011;62291;47.554;8.504;2022-07-24T08:21:04;9.30;;;8.50;;
73938;SDS011;62291;47.554;8.504;2022-07-24T08:23:30;9.32;;;8.52;;
73938;SDS011;62291;47.554;8.504;2022-07-24T08:25:56;9.07;;;8.27;;
73938;SDS011;62291;47.554;8.504;2022-07-24T08:28:21;9.88;;;8.98;;
73938;SDS011;62291;47.554;8.504;2022-07-24T08:30:48;9.45;;;8.55;;
73938;SDS011;62291;47.554;8.504;2022-07-24T08:33:14;8.85;;;7.95;;
73938;SDS011;62291;47.554;8.504;2022-07-24T08:35:40;9.25;;;8.40;;
73938;SDS011;62291;47.554;8.504;2022-07-24T08:38:06;9.35;;;8.50;;
73938;SDS011;62291;47.554;8.504;2022-07-24T08:40:35;9.27;;;8.40;;
73938;SDS011;62291;47.554;8.504;2022-07-24T08:43:03;9.52;;;8.70;;
73938;SDS011;62291;47.554;8.504;2022-07-24T08:45:29;9.32;;;8.38;;
73938;SDS011;62291;47.554;8.504;2022-07-24T08:48:00;9.73;;;8.82;;
73938;SDS011;62291;47.554;8.504;2022-07-24T08:50:29;9.98;;;9.07;;
73938;SDS011;62291;47.554;8.504;2022-07-24T08:52:56;10.20;;;9.30;;
73938;SDS011;62291;47.554;8.504;2022-07-24T08:55:22;10.38;;;9.13;;
73938;SDS011;62291;47.554;8.504;2022-07-24T08:57:48;9.77;;;8.90;;
73938;SDS011;62291;47.554;8.504;2022-07-24T09:00:14;9.95;;;8.98;;
73938;SDS011;62291;47.554;8.504;2022-07-24T09:02:40;9.68;;;8.50;;
73938;SDS011;62291;47.554;8.504;2022-07-24T09:05:06;10.00;;;9.10;;
73938;SDS011;62291;47.554;8.504;2022-07-24T09:07:32;9.93;;;8.98;;
73938;SDS011;62291;47.554;8.504;2022-07-24T09:09:59;9.63;;;8.75;;
73938;SDS011;62291;47.554;8.504;2022-07-24T09:12:29;9.80;;;8.82;;
73938;SDS011;62291;47.554;8.504;2022-07-24T09:14:56;10.35;;;9.20;;
73938;SDS011;62291;47.554;8.504;2022-07-24T09:17:23;9.63;;;8.82;;
73938;SDS011;62291;47.554;8.504;2022-07-24T09:19:56;10.05;;;9.13;;
73938;SDS011;62291;47.554;8.504;2022-07-24T09:25:04;9.18;;;8.27;;
73938;SDS011;62291;47.554;8.504;2022-07-24T09:27:51;9.23;;;8.32;;
73938;SDS011;62291;47.554;8.504;2022-07-24T09:30:32;9.07;;;8.27;;
73938;SDS011;62291;47.554;8.504;2022-07-24T09:33:06;10.25;;;8.68;;
73938;SDS011;62291;47.554;8.504;2022-07-24T09:35:44;8.88;;;8.07;;
73938;SDS011;62291;47.554;8.504;2022-07-24T09:38:19;9.07;;;8.27;;
73938;SDS011;62291;47.554;8.504;2022-07-24T09:40:47;9.18;;;8.25;;
73938;SDS011;62291;47.554;8.504;2022-07-24T09:51:08;10.20;;;9.27;;
73938;SDS011;62291;47.554;8.504;2022-07-24T09:53:39;9.60;;;8.70;;
73938;SDS011;62291;47.554;8.504;2022-07-24T09:56:06;10.10;;;8.90;;
73938;SDS011;62291;47.554;8.504;2022-07-24T09:58:35;9.90;;;9.00;;
73938;SDS011;62291;47.554;8.504;2022-07-24T10:01:03;9.35;;;8.55;;
73938;SDS011;62291;47.554;8.504;2022-07-24T10:03:32;9.65;;;8.65;;
73938;SDS011;62291;47.554;8.504;2022-07-24T10:06:03;10.35;;;9.35;;
73938;SDS011;62291;47.554;8.504;2022-07-24T10:08:31;9.77;;;8.88;;
73938;SDS011;62291;47.554;8.504;2022-07-24T10:10:58;9.88;;;8.98;;
73938;SDS011;62291;47.554;8.504;2022-07-24T10:13:24;9.55;;;8.68;;
73938;SDS011;62291;47.554;8.504;2022-07-24T10:21:29;10.50;;;9.50;;
73938;SDS011;62291;47.554;8.504;2022-07-24T10:26:49;10.30;;;9.35;;
73938;SDS011;62291;47.554;8.504;2022-07-24T10:29:18;9.35;;;8.55;;
73938;SDS011;62291;47.554;8.504;2022-07-24T10:31:52;9.52;;;8.73;;
73938;SDS011;62291;47.554;8.504;2022-07-24T10:42:09;10.07;;;8.63;;
73938;SDS011;62291;47.554;8.504;2022-07-24T10:44:34;9.07;;;8.10;;
73938;SDS011;62291;47.554;8.504;2022-07-24T10:52:04;8.63;;;7.82;;
73938;SDS011;62291;47.554;8.504;2022-07-24T10:54:29;9.35;;;7.65;;
73938;SDS011;62291;47.554;8.504;2022-07-24T10:56:55;9.10;;;8.02;;
73938;SDS011;62291;47.554;8.504;2022-07-24T10:59:37;8.13;;;7.32;;
73938;SDS011;62291;47.554;8.504;2022-07-24T11:02:25;7.75;;;7.05;;
73938;SDS011;62291;47.554;8.504;2022-07-24T11:10:57;7.80;;;7.10;;
73938;SDS011;62291;47.554;8.504;2022-07-24T11:16:16;7.82;;;6.78;;
73938;SDS011;62291;47.554;8.504;2022-07-24T11:29:20;8.38;;;7.57;;
73938;SDS011;62291;47.554;8.504;2022-07-24T11:31:59;7.10;;;6.40;;
73938;SDS011;62291;47.554;8.504;2022-07-24T11:34:26;6.85;;;6.35;;
73938;SDS011;62291;47.554;8.504;2022-07-24T11:36:54;8.50;;;6.75;;
73938;SDS011;62291;47.554;8.504;2022-07-24T11:39:34;7.82;;;7.05;;
73938;SDS011;62291;47.554;8.504;2022-07-24T11:42:07;7.82;;;7.13;;
73938;SDS011;62291;47.554;8.504;2022-07-24T11:44:35;8.05;;;7.25;;
73938;SDS011;62291;47.554;8.504;2022-07-24T11:47:05;8.27;;;7.03;;
73938;SDS011;62291;47.554;8.504;2022-07-24T11:49:55;8.02;;;7.28;;
73938;SDS011;62291;47.554;8.504;2022-07-24T11:52:24;7.50;;;6.90;;
73938;SDS011;62291;47.554;8.504;2022-07-24T11:57:21;7.47;;;6.88;;
73938;SDS011;62291;47.554;8.504;2022-07-24T11:59:49;8.35;;;7.55;;
73938;SDS011;62291;47.554;8.504;2022-07-24T12:02:16;7.88;;;6.97;;
73938;SDS011;62291;47.554;8.504;2022-07-24T12:04:43;7.75;;;6.97;;
73938;SDS011;62291;47.554;8.504;2022-07-24T12:07:14;8.23;;;7.43;;
73938;SDS011;62291;47.554;8.504;2022-07-24T12:09:51;7.57;;;6.82;;
73938;SDS011;62291;47.554;8.504;2022-07-24T12:12:28;7.60;;;6.90;;
73938;SDS011;62291;47.554;8.504;2022-07-24T12:15:08;8.07;;;7.30;;
73938;SDS011;62291;47.554;8.504;2022-07-24T12:20:42;7.82;;;7.03;;
73938;SDS011;62291;47.554;8.504;2022-07-24T12:23:10;7.57;;;6.90;;
73938;SDS011;62291;47.554;8.504;2022-07-24T12:25:38;7.47;;;6.78;;
73938;SDS011;62291;47.554;8.504;2022-07-24T12:28:08;8.27;;;7.53;;
73938;SDS011;62291;47.554;8.504;2022-07-24T12:30:44;7.75;;;7.15;;
73938;SDS011;62291;47.554;8.504;2022-07-24T12:38:27;7.78;;;7.07;;
73938;SDS011;62291;47.554;8.504;2022-07-24T12:41:03;8.30;;;7.30;;
73938;SDS011;62291;47.554;8.504;2022-07-24T12:43:55;8.35;;;7.65;;
73938;SDS011;62291;47.554;8.504;2022-07-24T12:46:24;7.93;;;6.70;;
73938;SDS011;62291;47.554;8.504;2022-07-24T12:49:00;8.30;;;7.40;;
73938;SDS011;62291;47.554;8.504;2022-07-24T12:51:50;7.93;;;6.82;;
73938;SDS011;62291;47.554;8.504;2022-07-24T12:57:00;7.22;;;6.53;;
73938;SDS011;62291;47.554;8.504;2022-07-24T12:59:30;6.90;;;6.30;;
73938;SDS011;62291;47.554;8.504;2022-07-24T13:04:30;8.23;;;7.43;;
73938;SDS011;62291;47.554;8.504;2022-07-24T13:06:57;7.40;;;6.80;;
73938;SDS011;62291;47.554;8.504;2022-07-24T13:09:25;9.52;;;7.38;;
73938;SDS011;62291;47.554;8.504;2022-07-24T13:11:52;7.95;;;7.15;;
73938;SDS011;62291;47.554;8.504;2022-07-24T13:14:21;6.97;;;6.28;;
73938;SDS011;62291;47.554;8.504;2022-07-24T13:16:49;7.43;;;6.72;;
73938;SDS011;62291;47.554;8.504;2022-07-24T13:19:16;7.50;;;6.88;;
73938;SDS011;62291;47.554;8.504;2022-07-24T13:21:43;7.53;;;6.82;;
73938;SDS011;62291;47.554;8.504;2022-07-24T13:24:11;7.55;;;6.82;;
73938;SDS011;62291;47.554;8.504;2022-07-24T13:26:38;7.97;;;7.18;;
73938;SDS011;62291;47.554;8.504;2022-07-24T13:29:05;7.10;;;6.50;;
73938;SDS011;62291;47.554;8.504;2022-07-24T13:31:32;7.55;;;6.85;;
73938;SDS011;62291;47.554;8.504;2022-07-24T13:33:58;7.82;;;7.13;;
73938;SDS011;62291;47.554;8.504;2022-07-24T13:36:24;7.25;;;6.57;;
73938;SDS011;62291;47.554;8.504;2022-07-24T13:38:50;6.60;;;6.00;;
73938;SDS011;62291;47.554;8.504;2022-07-24T13:41:16;7.05;;;6.30;;
73938;SDS011;62291;47.554;8.504;2022-07-24T13:43:44;6.57;;;5.97;;
73938;SDS011;62291;47.554;8.504;2022-07-24T13:46:10;7.22;;;6.53;;
73938;SDS011;62291;47.554;8.504;2022-07-24T13:48:36;6.70;;;6.07;;
73938;SDS011;62291;47.554;8.504;2022-07-24T13:51:02;8.63;;;6.10;;
73938;SDS011;62291;47.554;8.504;2022-07-24T13:53:27;6.82;;;6.20;;
73938;SDS011;62291;47.554;8.504;2022-07-24T13:55:53;7.43;;;6.50;;
73938;SDS011;62291;47.554;8.504;2022-07-24T13:58:19;6.55;;;6.05;;
73938;SDS011;62291;47.554;8.504;2022-07-24T14:00:44;6.60;;;5.85;;
73938;SDS011;62291;47.554;8.504;2022-07-24T14:03:10;6.68;;;6.07;;
73938;SDS011;62291;47.554;8.504;2022-07-24T14:05:36;6.53;;;5.97;;
73938;SDS011;62291;47.554;8.504;2022-07-24T14:08:02;6.43;;;5.82;;
73938;SDS011;62291;47.554;8.504;2022-07-24T14:10:28;6.78;;;5.68;;
73938;SDS011;62291;47.554;8.504;2022-07-24T14:12:53;7.05;;;6.20;;
73938;SDS011;62291;47.554;8.504;2022-07-24T14:15:19;6.40;;;5.80;;
73938;SDS011;62291;47.554;8.504;2022-07-24T14:17:45;6.68;;;6.00;;
73938;SDS011;62291;47.554;8.504;2022-07-24T14:20:11;6.50;;;5.90;;
73938;SDS011;62291;47.554;8.504;2022-07-24T14:22:38;7.40;;;6.32;;
73938;SDS011;62291;47.554;8.504;2022-07-24T14:25:05;7.22;;;6.53;;
73938;SDS011;62291;47.554;8.504;2022-07-24T14:27:35;7.20;;;6.47;;
73938;SDS011;62291;47.554;8.504;2022-07-24T14:30:01;7.43;;;6.72;;
73938;SDS011;62291;47.554;8.504;2022-07-24T14:32:27;7.13;;;6.50;;
73938;SDS011;62291;47.554;8.504;2022-07-24T14:34:53;7.38;;;5.90;;
73938;SDS011;62291;47.554;8.504;2022-07-24T14:37:19;6.72;;;6.13;;
73938;SDS011;62291;47.554;8.504;2022-07-24T14:39:44;7.22;;;6.53;;
73938;SDS011;62291;47.554;8.504;2022-07-24T14:42:10;6.95;;;6.03;;
73938;SDS011;62291;47.554;8.504;2022-07-24T14:44:36;6.28;;;5.78;;
73938;SDS011;62291;47.554;8.504;2022-07-24T14:47:01;8.50;;;5.55;;
73938;SDS011;62291;47.554;8.504;2022-07-24T14:49:30;6.38;;;5.78;;
73938;SDS011;62291;47.554;8.504;2022-07-24T14:51:56;5.80;;;5.30;;
73938;SDS011;62291;47.554;8.504;2022-07-24T14:54:23;6.47;;;5.80;;
73938;SDS011;62291;47.554;8.504;2022-07-24T14:56:49;12.80;;;6.20;;
73938;SDS011;62291;47.554;8.504;2022-07-24T14:59:14;6.80;;;6.20;;
73938;SDS011;62291;47.554;8.504;2022-07-24T15:01:40;6.55;;;6.05;;
73938;SDS011;62291;47.554;8.504;2022-07-24T15:04:06;6.80;;;6.10;;
73938;SDS011;62291;47.554;8.504;2022-07-24T15:06:33;7.32;;;6.30;;
73938;SDS011;62291;47.554;8.504;2022-07-24T15:09:02;7.40;;;6.30;;
73938;SDS011;62291;47.554;8.504;2022-07-24T15:11:28;6.65;;;6.07;;
73938;SDS011;62291;47.554;8.504;2022-07-24T15:13:54;7.95;;;6.18;;
73938;SDS011;62291;47.554;8.504;2022-07-24T15:16:20;6.55;;;5.95;;
73938;SDS011;62291;47.554;8.504;2022-07-24T15:18:46;6.93;;;6.20;;
73938;SDS011;62291;47.554;8.504;2022-07-24T15:21:12;5.75;;;5.25;;
73938;SDS011;62291;47.554;8.504;2022-07-24T15:23:37;6.32;;;5.72;;
73938;SDS011;62291;47.554;8.504;2022-07-24T15:26:03;6.07;;;5.57;;
73938;SDS011;62291;47.554;8.504;2022-07-24T15:28:29;6.13;;;5.40;;
73938;SDS011;62291;47.554;8.504;2022-07-24T15:30:55;7.05;;;6.30;;
73938;SDS011;62291;47.554;8.504;2022-07-24T15:33:21;6.15;;;5.55;;
73938;SDS011;62291;47.554;8.504;2022-07-24T15:35:47;6.20;;;5.60;;
73938;SDS011;62291;47.554;8.504;2022-07-24T15:38:12;6.07;;;5.47;;
73938;SDS011;62291;47.554;8.504;2022-07-24T15:40:39;6.00;;;5.40;;